sensor_id;sensor_type;location;lat;lon;timestamp;P1;durP1;ratioP1;P2;durP2;ratioP2
36205;SDS011;22242;48.796;9.930;2024-03-02T00:01:31;29.83;;;16.15;;
36205;SDS011;22242;48.796;9.930;2024-03-02T00:03:57;30.05;;;16.27;;
36205;SDS011;22242;48.796;9.930;2024-03-02T00:06:24;27.70;;;15.98;;
36205;SDS011;22242;48.796;9.930;2024-03-02T00:08:51;28.60;;;16.77;;
36205;SDS011;22242;48.796;9.930;2024-03-02T00:11:24;29.95;;;16.90;;
36205;SDS011;22242;48.796;9.930;2024-03-02T00:13:53;29.75;;;16.23;;
36205;SDS011;22242;48.796;9.930;2024-03-02T00:16:20;32.03;;;16.80;;
36205;SDS011;22242;48.796;9.930;2024-03-02T00:18:47;32.22;;;17.23;;
36205;SDS011;22242;48.796;9.930;2024-03-02T00:21:14;33.60;;;18.55;;
36205;SDS011;22242;48.796;9.930;2024-03-02T00:23:43;32.13;;;17.48;;
36205;SDS011;22242;48.796;9.930;2024-03-02T00:26:11;32.97;;;17.60;;
36205;SDS011;22242;48.796;9.930;2024-03-02T00:28:38;33.20;;;17.20;;
36205;SDS011;22242;48.796;9.930;2024-03-02T00:31:08;31.83;;;17.85;;
36205;SDS011;22242;48.796;9.930;2024-03-02T00:33:37;37.47;;;18.42;;
36205;SDS011;22242;48.796;9.930;2024-03-02T00:36:07;37.17;;;18.70;;
36205;SDS011;22242;48.796;9.930;2024-03-02T00:38:35;33.58;;;18.63;;
36205;SDS011;22242;48.796;9.930;2024-03-02T00:41:16;32.00;;;17.08;;
36205;SDS011;22242;48.796;9.930;2024-03-02T00:43:47;33.25;;;18.27;;
36205;SDS011;22242;48.796;9.930;2024-03-02T00:46:24;33.08;;;17.55;;
36205;SDS011;22242;48.796;9.930;2024-03-02T00:48:52;31.88;;;16.65;;
36205;SDS011;22242;48.796;9.930;2024-03-02T00:51:20;33.88;;;18.38;;
36205;SDS011;22242;48.796;9.930;2024-03-02T00:53:48;31.45;;;17.35;;
36205;SDS011;22242;48.796;9.930;2024-03-02T00:56:15;33.13;;;17.90;;
36205;SDS011;22242;48.796;9.930;2024-03-02T00:58:42;33.38;;;17.85;;
36205;SDS011;22242;48.796;9.930;2024-03-02T01:01:09;33.65;;;18.20;;
36205;SDS011;22242;48.796;9.930;2024-03-02T01:03:37;33.17;;;18.25;;
36205;SDS011;22242;48.796;9.930;2024-03-02T01:06:04;35.28;;;17.45;;
36205;SDS011;22242;48.796;9.930;2024-03-02T01:08:32;35.50;;;17.60;;
36205;SDS011;22242;48.796;9.930;2024-03-02T01:10:59;37.47;;;18.70;;
36205;SDS011;22242;48.796;9.930;2024-03-02T01:13:26;34.85;;;18.02;;
36205;SDS011;22242;48.796;9.930;2024-03-02T01:15:53;37.67;;;18.02;;
36205;SDS011;22242;48.796;9.930;2024-03-02T01:18:20;37.13;;;19.27;;
36205;SDS011;22242;48.796;9.930;2024-03-02T01:20:49;39.33;;;18.17;;
36205;SDS011;22242;48.796;9.930;2024-03-02T01:23:17;31.55;;;17.30;;
36205;SDS011;22242;48.796;9.930;2024-03-02T01:25:45;33.33;;;17.75;;
36205;SDS011;22242;48.796;9.930;2024-03-02T01:28:12;32.38;;;17.95;;
36205;SDS011;22242;48.796;9.930;2024-03-02T01:30:39;34.05;;;17.80;;
36205;SDS011;22242;48.796;9.930;2024-03-02T01:33:06;32.97;;;16.90;;
36205;SDS011;22242;48.796;9.930;2024-03-02T01:35:32;31.83;;;16.65;;
36205;SDS011;22242;48.796;9.930;2024-03-02T01:38:02;31.45;;;17.00;;
36205;SDS011;22242;48.796;9.930;2024-03-02T01:40:31;31.88;;;16.98;;
36205;SDS011;22242;48.796;9.930;2024-03-02T01:42:58;29.00;;;15.32;;
36205;SDS011;22242;48.796;9.930;2024-03-02T01:45:25;29.70;;;15.85;;
36205;SDS011;22242;48.796;9.930;2024-03-02T01:47:52;32.05;;;16.15;;
36205;SDS011;22242;48.796;9.930;2024-03-02T01:50:24;28.90;;;15.50;;
36205;SDS011;22242;48.796;9.930;2024-03-02T01:55:20;30.20;;;15.32;;
36205;SDS011;22242;48.796;9.930;2024-03-02T01:57:47;30.33;;;15.45;;
36205;SDS011;22242;48.796;9.930;2024-03-02T02:00:16;28.00;;;15.85;;
36205;SDS011;22242;48.796;9.930;2024-03-02T02:02:43;28.20;;;15.77;;
36205;SDS011;22242;48.796;9.930;2024-03-02T02:05:10;28.63;;;15.07;;
36205;SDS011;22242;48.796;9.930;2024-03-02T02:07:37;26.63;;;14.75;;
36205;SDS011;22242;48.796;9.930;2024-03-02T02:10:04;28.08;;;16.08;;
36205;SDS011;22242;48.796;9.930;2024-03-02T02:12:33;27.52;;;14.85;;
36205;SDS011;22242;48.796;9.930;2024-03-02T02:15:00;30.35;;;15.52;;
36205;SDS011;22242;48.796;9.930;2024-03-02T02:17:27;29.85;;;15.63;;
36205;SDS011;22242;48.796;9.930;2024-03-02T02:19:54;29.60;;;15.27;;
36205;SDS011;22242;48.796;9.930;2024-03-02T02:22:22;24.77;;;13.88;;
36205;SDS011;22242;48.796;9.930;2024-03-02T02:24:49;27.45;;;14.80;;
36205;SDS011;22242;48.796;9.930;2024-03-02T02:27:16;23.73;;;13.82;;
36205;SDS011;22242;48.796;9.930;2024-03-02T02:29:43;24.48;;;13.55;;
36205;SDS011;22242;48.796;9.930;2024-03-02T02:32:10;26.67;;;14.88;;
36205;SDS011;22242;48.796;9.930;2024-03-02T02:34:36;25.33;;;14.65;;
36205;SDS011;22242;48.796;9.930;2024-03-02T02:37:03;28.38;;;14.80;;
36205;SDS011;22242;48.796;9.930;2024-03-02T02:39:32;29.70;;;15.57;;
36205;SDS011;22242;48.796;9.930;2024-03-02T02:41:58;28.15;;;15.50;;
36205;SDS011;22242;48.796;9.930;2024-03-02T02:44:26;28.55;;;14.82;;
36205;SDS011;22242;48.796;9.930;2024-03-02T02:46:53;27.80;;;15.15;;
36205;SDS011;22242;48.796;9.930;2024-03-02T02:49:19;25.98;;;13.95;;
36205;SDS011;22242;48.796;9.930;2024-03-02T02:51:46;25.83;;;14.60;;
36205;SDS011;22242;48.796;9.930;2024-03-02T02:54:13;25.48;;;14.45;;
36205;SDS011;22242;48.796;9.930;2024-03-02T02:56:41;27.65;;;14.32;;
36205;SDS011;22242;48.796;9.930;2024-03-02T02:59:08;26.55;;;14.55;;
36205;SDS011;22242;48.796;9.930;2024-03-02T03:01:35;28.00;;;14.27;;
36205;SDS011;22242;48.796;9.930;2024-03-02T03:04:01;24.45;;;14.32;;
36205;SDS011;22242;48.796;9.930;2024-03-02T03:06:28;26.73;;;14.50;;
36205;SDS011;22242;48.796;9.930;2024-03-02T03:08:55;28.80;;;15.05;;
36205;SDS011;22242;48.796;9.930;2024-03-02T03:11:22;25.73;;;12.98;;
36205;SDS011;22242;48.796;9.930;2024-03-02T03:13:52;26.75;;;14.93;;
36205;SDS011;22242;48.796;9.930;2024-03-02T03:16:20;30.90;;;15.63;;
36205;SDS011;22242;48.796;9.930;2024-03-02T03:18:47;27.35;;;14.80;;
36205;SDS011;22242;48.796;9.930;2024-03-02T03:21:16;26.45;;;14.77;;
36205;SDS011;22242;48.796;9.930;2024-03-02T03:23:43;25.65;;;14.90;;
36205;SDS011;22242;48.796;9.930;2024-03-02T03:26:10;27.52;;;14.13;;
36205;SDS011;22242;48.796;9.930;2024-03-02T03:28:37;27.67;;;14.38;;
36205;SDS011;22242;48.796;9.930;2024-03-02T03:31:05;27.50;;;15.05;;
36205;SDS011;22242;48.796;9.930;2024-03-02T03:33:32;27.23;;;14.20;;
36205;SDS011;22242;48.796;9.930;2024-03-02T03:35:59;24.10;;;13.20;;
36205;SDS011;22242;48.796;9.930;2024-03-02T03:38:28;24.35;;;13.82;;
36205;SDS011;22242;48.796;9.930;2024-03-02T03:40:55;25.30;;;13.50;;
36205;SDS011;22242;48.796;9.930;2024-03-02T03:43:22;24.23;;;13.88;;
36205;SDS011;22242;48.796;9.930;2024-03-02T03:45:48;26.08;;;13.80;;
36205;SDS011;22242;48.796;9.930;2024-03-02T03:48:16;27.02;;;14.75;;
36205;SDS011;22242;48.796;9.930;2024-03-02T03:50:43;26.60;;;14.05;;
36205;SDS011;22242;48.796;9.930;2024-03-02T03:53:10;27.60;;;15.20;;
36205;SDS011;22242;48.796;9.930;2024-03-02T03:55:37;27.38;;;14.60;;
36205;SDS011;22242;48.796;9.930;2024-03-02T03:58:04;31.92;;;16.00;;
36205;SDS011;22242;48.796;9.930;2024-03-02T04:00:31;32.35;;;15.98;;
36205;SDS011;22242;48.796;9.930;2024-03-02T04:02:58;30.80;;;15.85;;
36205;SDS011;22242;48.796;9.930;2024-03-02T04:05:26;30.52;;;15.23;;
36205;SDS011;22242;48.796;9.930;2024-03-02T04:07:53;29.10;;;14.30;;
36205;SDS011;22242;48.796;9.930;2024-03-02T04:10:20;30.52;;;15.38;;
36205;SDS011;22242;48.796;9.930;2024-03-02T04:12:46;29.05;;;14.18;;
36205;SDS011;22242;48.796;9.930;2024-03-02T04:15:15;29.30;;;15.30;;
36205;SDS011;22242;48.796;9.930;2024-03-02T04:17:43;27.77;;;14.32;;
36205;SDS011;22242;48.796;9.930;2024-03-02T04:20:10;25.08;;;13.27;;
36205;SDS011;22242;48.796;9.930;2024-03-02T04:22:39;28.17;;;14.40;;
36205;SDS011;22242;48.796;9.930;2024-03-02T04:25:06;25.85;;;13.75;;
36205;SDS011;22242;48.796;9.930;2024-03-02T04:27:32;27.55;;;15.18;;
36205;SDS011;22242;48.796;9.930;2024-03-02T04:29:59;29.38;;;14.63;;
36205;SDS011;22242;48.796;9.930;2024-03-02T04:32:26;25.55;;;14.23;;
36205;SDS011;22242;48.796;9.930;2024-03-02T04:34:53;26.42;;;13.30;;
36205;SDS011;22242;48.796;9.930;2024-03-02T04:37:20;29.30;;;15.18;;
36205;SDS011;22242;48.796;9.930;2024-03-02T04:39:48;29.83;;;14.23;;
36205;SDS011;22242;48.796;9.930;2024-03-02T04:42:15;28.17;;;14.98;;
36205;SDS011;22242;48.796;9.930;2024-03-02T04:44:42;27.45;;;13.85;;
36205;SDS011;22242;48.796;9.930;2024-03-02T04:47:08;25.88;;;13.45;;
36205;SDS011;22242;48.796;9.930;2024-03-02T04:49:35;26.33;;;13.45;;
36205;SDS011;22242;48.796;9.930;2024-03-02T04:52:02;22.17;;;11.88;;
36205;SDS011;22242;48.796;9.930;2024-03-02T04:54:30;27.33;;;13.50;;
36205;SDS011;22242;48.796;9.930;2024-03-02T04:56:58;24.70;;;12.57;;
36205;SDS011;22242;48.796;9.930;2024-03-02T04:59:24;24.58;;;13.15;;
36205;SDS011;22242;48.796;9.930;2024-03-02T05:01:50;25.15;;;13.23;;
36205;SDS011;22242;48.796;9.930;2024-03-02T05:04:17;26.05;;;13.45;;
36205;SDS011;22242;48.796;9.930;2024-03-02T05:06:44;21.75;;;11.43;;
36205;SDS011;22242;48.796;9.930;2024-03-02T05:09:17;24.30;;;13.93;;
36205;SDS011;22242;48.796;9.930;2024-03-02T05:11:43;23.58;;;12.63;;
36205;SDS011;22242;48.796;9.930;2024-03-02T05:14:38;23.80;;;12.40;;
36205;SDS011;22242;48.796;9.930;2024-03-02T05:17:05;20.25;;;11.38;;
36205;SDS011;22242;48.796;9.930;2024-03-02T05:19:31;21.08;;;11.82;;
36205;SDS011;22242;48.796;9.930;2024-03-02T05:21:58;20.35;;;11.48;;
36205;SDS011;22242;48.796;9.930;2024-03-02T05:24:25;21.88;;;12.35;;
36205;SDS011;22242;48.796;9.930;2024-03-02T05:26:53;22.20;;;11.85;;
36205;SDS011;22242;48.796;9.930;2024-03-02T05:29:20;23.52;;;11.10;;
36205;SDS011;22242;48.796;9.930;2024-03-02T05:31:49;19.08;;;11.00;;
36205;SDS011;22242;48.796;9.930;2024-03-02T05:34:15;20.10;;;12.25;;
36205;SDS011;22242;48.796;9.930;2024-03-02T05:36:43;22.58;;;12.13;;
36205;SDS011;22242;48.796;9.930;2024-03-02T05:39:10;21.80;;;11.10;;
36205;SDS011;22242;48.796;9.930;2024-03-02T05:41:37;18.92;;;10.63;;
36205;SDS011;22242;48.796;9.930;2024-03-02T05:44:04;18.73;;;9.95;;
36205;SDS011;22242;48.796;9.930;2024-03-02T05:46:31;18.42;;;10.50;;
36205;SDS011;22242;48.796;9.930;2024-03-02T05:48:59;17.67;;;9.27;;
36205;SDS011;22242;48.796;9.930;2024-03-02T05:51:26;17.08;;;9.48;;
36205;SDS011;22242;48.796;9.930;2024-03-02T05:53:53;17.30;;;9.30;;
36205;SDS011;22242;48.796;9.930;2024-03-02T05:56:19;15.60;;;9.77;;
36205;SDS011;22242;48.796;9.930;2024-03-02T05:58:47;16.05;;;9.55;;
36205;SDS011;22242;48.796;9.930;2024-03-02T06:01:26;17.30;;;9.88;;
36205;SDS011;22242;48.796;9.930;2024-03-02T06:03:54;17.38;;;10.52;;
36205;SDS011;22242;48.796;9.930;2024-03-02T06:06:23;15.85;;;9.25;;
36205;SDS011;22242;48.796;9.930;2024-03-02T06:08:50;15.75;;;9.88;;
36205;SDS011;22242;48.796;9.930;2024-03-02T06:11:17;16.33;;;10.10;;
36205;SDS011;22242;48.796;9.930;2024-03-02T06:13:45;18.67;;;10.60;;
36205;SDS011;22242;48.796;9.930;2024-03-02T06:16:12;18.48;;;10.65;;
36205;SDS011;22242;48.796;9.930;2024-03-02T06:18:38;15.13;;;8.88;;
36205;SDS011;22242;48.796;9.930;2024-03-02T06:21:05;17.13;;;10.05;;
36205;SDS011;22242;48.796;9.930;2024-03-02T06:23:34;18.23;;;10.15;;
36205;SDS011;22242;48.796;9.930;2024-03-02T06:26:01;17.50;;;9.40;;
36205;SDS011;22242;48.796;9.930;2024-03-02T06:28:28;15.57;;;9.07;;
36205;SDS011;22242;48.796;9.930;2024-03-02T06:30:55;16.13;;;9.80;;
36205;SDS011;22242;48.796;9.930;2024-03-02T06:33:22;17.88;;;10.73;;
36205;SDS011;22242;48.796;9.930;2024-03-02T06:35:48;18.75;;;10.98;;
36205;SDS011;22242;48.796;9.930;2024-03-02T06:38:15;21.38;;;11.07;;
36205;SDS011;22242;48.796;9.930;2024-03-02T06:40:43;21.50;;;11.02;;
36205;SDS011;22242;48.796;9.930;2024-03-02T06:43:10;18.42;;;10.88;;
36205;SDS011;22242;48.796;9.930;2024-03-02T06:45:37;18.60;;;10.27;;
36205;SDS011;22242;48.796;9.930;2024-03-02T06:48:04;19.23;;;9.77;;
36205;SDS011;22242;48.796;9.930;2024-03-02T06:50:32;17.42;;;10.27;;
36205;SDS011;22242;48.796;9.930;2024-03-02T06:52:58;19.25;;;10.77;;
36205;SDS011;22242;48.796;9.930;2024-03-02T06:55:25;15.30;;;9.27;;
36205;SDS011;22242;48.796;9.930;2024-03-02T06:57:53;16.70;;;10.13;;
36205;SDS011;22242;48.796;9.930;2024-03-02T07:00:20;18.00;;;9.90;;
36205;SDS011;22242;48.796;9.930;2024-03-02T07:02:47;16.05;;;10.13;;
36205;SDS011;22242;48.796;9.930;2024-03-02T07:05:14;15.60;;;10.18;;
36205;SDS011;22242;48.796;9.930;2024-03-02T07:07:41;16.48;;;9.75;;
36205;SDS011;22242;48.796;9.930;2024-03-02T07:10:08;17.50;;;9.85;;
36205;SDS011;22242;48.796;9.930;2024-03-02T07:12:35;16.58;;;9.50;;
36205;SDS011;22242;48.796;9.930;2024-03-02T07:15:04;13.88;;;8.65;;
36205;SDS011;22242;48.796;9.930;2024-03-02T07:17:46;11.63;;;7.72;;
36205;SDS011;22242;48.796;9.930;2024-03-02T07:20:13;15.30;;;9.00;;
36205;SDS011;22242;48.796;9.930;2024-03-02T07:22:40;13.35;;;8.45;;
36205;SDS011;22242;48.796;9.930;2024-03-02T07:25:07;11.15;;;7.68;;
36205;SDS011;22242;48.796;9.930;2024-03-02T07:27:34;13.00;;;8.05;;
36205;SDS011;22242;48.796;9.930;2024-03-02T07:30:01;14.25;;;7.60;;
36205;SDS011;22242;48.796;9.930;2024-03-02T07:32:29;12.63;;;8.02;;
36205;SDS011;22242;48.796;9.930;2024-03-02T07:34:56;11.23;;;7.28;;
36205;SDS011;22242;48.796;9.930;2024-03-02T07:37:23;10.70;;;6.78;;
36205;SDS011;22242;48.796;9.930;2024-03-02T07:39:50;13.30;;;8.27;;
36205;SDS011;22242;48.796;9.930;2024-03-02T07:42:17;10.40;;;7.25;;
36205;SDS011;22242;48.796;9.930;2024-03-02T07:44:45;9.57;;;6.63;;
36205;SDS011;22242;48.796;9.930;2024-03-02T07:47:12;8.43;;;5.72;;
36205;SDS011;22242;48.796;9.930;2024-03-02T07:49:40;10.30;;;6.50;;
36205;SDS011;22242;48.796;9.930;2024-03-02T07:52:07;6.85;;;5.47;;
36205;SDS011;22242;48.796;9.930;2024-03-02T07:54:34;9.25;;;5.50;;
36205;SDS011;22242;48.796;9.930;2024-03-02T07:57:01;7.93;;;5.82;;
36205;SDS011;22242;48.796;9.930;2024-03-02T07:59:28;8.02;;;5.57;;
36205;SDS011;22242;48.796;9.930;2024-03-02T08:01:55;8.88;;;5.65;;
36205;SDS011;22242;48.796;9.930;2024-03-02T08:04:22;8.98;;;6.15;;
36205;SDS011;22242;48.796;9.930;2024-03-02T08:06:50;8.93;;;5.93;;
36205;SDS011;22242;48.796;9.930;2024-03-02T08:09:17;8.68;;;6.28;;
36205;SDS011;22242;48.796;9.930;2024-03-02T08:11:43;10.25;;;6.00;;
36205;SDS011;22242;48.796;9.930;2024-03-02T08:14:10;9.05;;;6.35;;
36205;SDS011;22242;48.796;9.930;2024-03-02T08:16:37;10.02;;;5.88;;
36205;SDS011;22242;48.796;9.930;2024-03-02T08:19:04;8.27;;;6.20;;
36205;SDS011;22242;48.796;9.930;2024-03-02T08:21:31;8.40;;;5.78;;
36205;SDS011;22242;48.796;9.930;2024-03-02T08:24:01;7.40;;;5.20;;
36205;SDS011;22242;48.796;9.930;2024-03-02T08:26:28;7.80;;;5.40;;
36205;SDS011;22242;48.796;9.930;2024-03-02T08:28:56;7.60;;;5.53;;
36205;SDS011;22242;48.796;9.930;2024-03-02T08:31:23;9.10;;;5.15;;
36205;SDS011;22242;48.796;9.930;2024-03-02T08:33:50;6.53;;;4.78;;
36205;SDS011;22242;48.796;9.930;2024-03-02T08:36:17;9.13;;;5.20;;
36205;SDS011;22242;48.796;9.930;2024-03-02T08:38:44;7.22;;;5.05;;
36205;SDS011;22242;48.796;9.930;2024-03-02T08:41:12;6.90;;;5.20;;
36205;SDS011;22242;48.796;9.930;2024-03-02T08:43:41;7.03;;;5.28;;
36205;SDS011;22242;48.796;9.930;2024-03-02T08:46:08;6.78;;;4.90;;
36205;SDS011;22242;48.796;9.930;2024-03-02T08:48:35;6.57;;;5.28;;
36205;SDS011;22242;48.796;9.930;2024-03-02T08:51:02;5.57;;;4.57;;
36205;SDS011;22242;48.796;9.930;2024-03-02T08:53:32;6.78;;;4.85;;
36205;SDS011;22242;48.796;9.930;2024-03-02T08:55:59;5.88;;;4.53;;
36205;SDS011;22242;48.796;9.930;2024-03-02T08:58:27;6.40;;;4.15;;
36205;SDS011;22242;48.796;9.930;2024-03-02T09:00:54;8.60;;;4.93;;
36205;SDS011;22242;48.796;9.930;2024-03-02T09:03:21;4.45;;;3.78;;
36205;SDS011;22242;48.796;9.930;2024-03-02T09:05:48;4.35;;;3.53;;
36205;SDS011;22242;48.796;9.930;2024-03-02T09:08:15;3.88;;;3.15;;
36205;SDS011;22242;48.796;9.930;2024-03-02T09:10:41;3.72;;;3.33;;
36205;SDS011;22242;48.796;9.930;2024-03-02T09:13:09;4.40;;;3.95;;
36205;SDS011;22242;48.796;9.930;2024-03-02T09:15:37;4.32;;;3.67;;
36205;SDS011;22242;48.796;9.930;2024-03-02T09:18:04;4.03;;;3.50;;
36205;SDS011;22242;48.796;9.930;2024-03-02T09:20:31;4.55;;;3.70;;
36205;SDS011;22242;48.796;9.930;2024-03-02T09:22:58;4.00;;;3.60;;
36205;SDS011;22242;48.796;9.930;2024-03-02T09:25:25;3.60;;;3.30;;
36205;SDS011;22242;48.796;9.930;2024-03-02T09:27:52;4.15;;;3.05;;
36205;SDS011;22242;48.796;9.930;2024-03-02T09:30:19;3.53;;;3.22;;
36205;SDS011;22242;48.796;9.930;2024-03-02T09:32:47;3.40;;;3.10;;
36205;SDS011;22242;48.796;9.930;2024-03-02T09:35:14;3.50;;;3.20;;
36205;SDS011;22242;48.796;9.930;2024-03-02T09:37:41;3.53;;;3.22;;
36205;SDS011;22242;48.796;9.930;2024-03-02T09:40:08;3.47;;;3.17;;
36205;SDS011;22242;48.796;9.930;2024-03-02T09:42:36;3.42;;;2.97;;
36205;SDS011;22242;48.796;9.930;2024-03-02T09:45:03;3.88;;;3.58;;
36205;SDS011;22242;48.796;9.930;2024-03-02T09:47:31;4.10;;;3.70;;
36205;SDS011;22242;48.796;9.930;2024-03-02T09:49:59;4.07;;;3.53;;
36205;SDS011;22242;48.796;9.930;2024-03-02T09:52:26;4.47;;;4.07;;
36205;SDS011;22242;48.796;9.930;2024-03-02T09:54:53;4.10;;;3.70;;
36205;SDS011;22242;48.796;9.930;2024-03-02T09:57:20;3.88;;;3.55;;
36205;SDS011;22242;48.796;9.930;2024-03-02T09:59:47;4.30;;;3.67;;
36205;SDS011;22242;48.796;9.930;2024-03-02T10:02:14;3.38;;;3.08;;
36205;SDS011;22242;48.796;9.930;2024-03-02T10:04:40;4.28;;;3.10;;
36205;SDS011;22242;48.796;9.930;2024-03-02T10:07:12;4.30;;;3.22;;
36205;SDS011;22242;48.796;9.930;2024-03-02T10:09:40;3.20;;;2.90;;
36205;SDS011;22242;48.796;9.930;2024-03-02T10:12:07;3.63;;;3.13;;
36205;SDS011;22242;48.796;9.930;2024-03-02T10:14:36;3.25;;;2.85;;
36205;SDS011;22242;48.796;9.930;2024-03-02T10:17:04;3.88;;;2.63;;
36205;SDS011;22242;48.796;9.930;2024-03-02T10:19:31;5.18;;;2.40;;
36205;SDS011;22242;48.796;9.930;2024-03-02T10:22:00;3.60;;;2.70;;
36205;SDS011;22242;48.796;9.930;2024-03-02T10:24:34;3.15;;;2.60;;
36205;SDS011;22242;48.796;9.930;2024-03-02T10:27:06;2.35;;;2.10;;
36205;SDS011;22242;48.796;9.930;2024-03-02T10:29:36;2.80;;;2.50;;
36205;SDS011;22242;48.796;9.930;2024-03-02T10:32:04;2.10;;;1.70;;
36205;SDS011;22242;48.796;9.930;2024-03-02T10:34:32;2.65;;;2.05;;
36205;SDS011;22242;48.796;9.930;2024-03-02T10:36:59;4.35;;;2.03;;
36205;SDS011;22242;48.796;9.930;2024-03-02T10:39:26;2.88;;;2.03;;
36205;SDS011;22242;48.796;9.930;2024-03-02T10:41:55;3.55;;;2.08;;
36205;SDS011;22242;48.796;9.930;2024-03-02T10:44:22;3.58;;;2.00;;
36205;SDS011;22242;48.796;9.930;2024-03-02T10:46:49;2.42;;;1.90;;
36205;SDS011;22242;48.796;9.930;2024-03-02T10:49:18;3.33;;;2.10;;
36205;SDS011;22242;48.796;9.930;2024-03-02T10:51:47;3.45;;;2.13;;
36205;SDS011;22242;48.796;9.930;2024-03-02T10:54:13;2.30;;;2.10;;
36205;SDS011;22242;48.796;9.930;2024-03-02T10:56:41;2.97;;;2.53;;
36205;SDS011;22242;48.796;9.930;2024-03-02T10:59:14;2.47;;;2.15;;
36205;SDS011;22242;48.796;9.930;2024-03-02T11:01:44;2.03;;;1.90;;
36205;SDS011;22242;48.796;9.930;2024-03-02T11:04:13;2.08;;;1.88;;
36205;SDS011;22242;48.796;9.930;2024-03-02T11:06:43;1.90;;;1.63;;
36205;SDS011;22242;48.796;9.930;2024-03-02T11:09:15;2.90;;;1.80;;
36205;SDS011;22242;48.796;9.930;2024-03-02T11:11:44;1.80;;;1.55;;
36205;SDS011;22242;48.796;9.930;2024-03-02T11:14:17;3.80;;;1.38;;
36205;SDS011;22242;48.796;9.930;2024-03-02T11:16:50;1.85;;;1.70;;
36205;SDS011;22242;48.796;9.930;2024-03-02T11:19:19;2.67;;;1.80;;
36205;SDS011;22242;48.796;9.930;2024-03-02T11:21:46;2.45;;;1.65;;
36205;SDS011;22242;48.796;9.930;2024-03-02T11:27:02;1.95;;;1.50;;
36205;SDS011;22242;48.796;9.930;2024-03-02T11:29:43;1.88;;;1.42;;
36205;SDS011;22242;48.796;9.930;2024-03-02T11:32:15;1.20;;;1.10;;
36205;SDS011;22242;48.796;9.930;2024-03-02T11:34:43;1.50;;;1.00;;
36205;SDS011;22242;48.796;9.930;2024-03-02T11:37:12;2.55;;;1.70;;
36205;SDS011;22242;48.796;9.930;2024-03-02T11:39:40;1.73;;;1.40;;
36205;SDS011;22242;48.796;9.930;2024-03-02T11:42:08;1.67;;;1.58;;
36205;SDS011;22242;48.796;9.930;2024-03-02T11:44:35;1.60;;;1.45;;
36205;SDS011;22242;48.796;9.930;2024-03-02T11:47:05;2.28;;;1.50;;
36205;SDS011;22242;48.796;9.930;2024-03-02T11:49:39;1.65;;;1.48;;
36205;SDS011;22242;48.796;9.930;2024-03-02T11:52:07;3.88;;;1.40;;
36205;SDS011;22242;48.796;9.930;2024-03-02T11:54:36;1.95;;;1.13;;
36205;SDS011;22242;48.796;9.930;2024-03-02T11:57:05;1.20;;;1.10;;
36205;SDS011;22242;48.796;9.930;2024-03-02T11:59:32;1.30;;;1.05;;
36205;SDS011;22242;48.796;9.930;2024-03-02T12:01:59;2.28;;;0.95;;
36205;SDS011;22242;48.796;9.930;2024-03-02T12:04:29;1.30;;;1.10;;
36205;SDS011;22242;48.796;9.930;2024-03-02T12:06:58;2.13;;;1.20;;
36205;SDS011;22242;48.796;9.930;2024-03-02T12:09:26;1.20;;;1.10;;
36205;SDS011;22242;48.796;9.930;2024-03-02T12:12:03;1.75;;;1.40;;
36205;SDS011;22242;48.796;9.930;2024-03-02T12:14:31;3.83;;;1.50;;
36205;SDS011;22242;48.796;9.930;2024-03-02T12:16:58;1.40;;;1.10;;
36205;SDS011;22242;48.796;9.930;2024-03-02T12:19:25;1.08;;;0.98;;
36205;SDS011;22242;48.796;9.930;2024-03-02T12:21:55;2.05;;;1.50;;
36205;SDS011;22242;48.796;9.930;2024-03-02T12:24:23;1.02;;;0.93;;
36205;SDS011;22242;48.796;9.930;2024-03-02T12:26:52;2.63;;;1.10;;
36205;SDS011;22242;48.796;9.930;2024-03-02T12:29:20;1.83;;;1.40;;
36205;SDS011;22242;48.796;9.930;2024-03-02T12:31:47;1.15;;;1.05;;
36205;SDS011;22242;48.796;9.930;2024-03-02T12:34:15;1.13;;;1.02;;
36205;SDS011;22242;48.796;9.930;2024-03-02T12:36:43;0.98;;;0.85;;
36205;SDS011;22242;48.796;9.930;2024-03-02T12:39:14;1.33;;;1.23;;
36205;SDS011;22242;48.796;9.930;2024-03-02T12:41:41;1.55;;;1.02;;
36205;SDS011;22242;48.796;9.930;2024-03-02T12:44:08;2.08;;;0.85;;
36205;SDS011;22242;48.796;9.930;2024-03-02T12:46:35;1.15;;;1.05;;
36205;SDS011;22242;48.796;9.930;2024-03-02T12:49:05;1.10;;;1.00;;
36205;SDS011;22242;48.796;9.930;2024-03-02T12:51:35;1.13;;;0.90;;
36205;SDS011;22242;48.796;9.930;2024-03-02T12:54:02;1.30;;;1.20;;
36205;SDS011;22242;48.796;9.930;2024-03-02T12:56:31;1.25;;;1.15;;
36205;SDS011;22242;48.796;9.930;2024-03-02T12:58:59;1.08;;;0.98;;
36205;SDS011;22242;48.796;9.930;2024-03-02T13:01:26;1.10;;;1.00;;
36205;SDS011;22242;48.796;9.930;2024-03-02T13:03:53;2.05;;;1.23;;
36205;SDS011;22242;48.796;9.930;2024-03-02T13:06:21;1.20;;;1.10;;
36205;SDS011;22242;48.796;9.930;2024-03-02T13:08:48;1.13;;;1.02;;
36205;SDS011;22242;48.796;9.930;2024-03-02T13:11:15;1.42;;;1.33;;
36205;SDS011;22242;48.796;9.930;2024-03-02T13:13:44;1.42;;;1.17;;
36205;SDS011;22242;48.796;9.930;2024-03-02T13:16:11;1.58;;;1.30;;
36205;SDS011;22242;48.796;9.930;2024-03-02T13:18:38;1.48;;;1.20;;
36205;SDS011;22242;48.796;9.930;2024-03-02T13:21:06;1.20;;;1.10;;
36205;SDS011;22242;48.796;9.930;2024-03-02T13:23:33;1.40;;;1.30;;
36205;SDS011;22242;48.796;9.930;2024-03-02T13:26:00;1.60;;;1.23;;
36205;SDS011;22242;48.796;9.930;2024-03-02T13:28:27;2.38;;;1.17;;
36205;SDS011;22242;48.796;9.930;2024-03-02T13:30:55;1.67;;;1.20;;
36205;SDS011;22242;48.796;9.930;2024-03-02T13:33:23;1.58;;;1.05;;
36205;SDS011;22242;48.796;9.930;2024-03-02T13:35:50;1.60;;;1.30;;
36205;SDS011;22242;48.796;9.930;2024-03-02T13:38:17;3.78;;;1.15;;
36205;SDS011;22242;48.796;9.930;2024-03-02T13:40:45;5.60;;;1.15;;
36205;SDS011;22242;48.796;9.930;2024-03-02T13:43:12;2.88;;;1.00;;
36205;SDS011;22242;48.796;9.930;2024-03-02T13:45:38;1.90;;;1.00;;
36205;SDS011;22242;48.796;9.930;2024-03-02T13:48:07;1.48;;;0.95;;
36205;SDS011;22242;48.796;9.930;2024-03-02T13:50:34;1.85;;;1.08;;
36205;SDS011;22242;48.796;9.930;2024-03-02T13:53:01;1.63;;;1.40;;
36205;SDS011;22242;48.796;9.930;2024-03-02T13:55:28;2.65;;;1.40;;
36205;SDS011;22242;48.796;9.930;2024-03-02T13:57:55;3.42;;;2.03;;
36205;SDS011;22242;48.796;9.930;2024-03-02T14:00:21;2.30;;;2.10;;
36205;SDS011;22242;48.796;9.930;2024-03-02T14:02:48;3.60;;;2.90;;
36205;SDS011;22242;48.796;9.930;2024-03-02T14:05:17;3.20;;;2.80;;
36205;SDS011;22242;48.796;9.930;2024-03-02T14:07:44;3.50;;;3.20;;
36205;SDS011;22242;48.796;9.930;2024-03-02T14:10:11;3.20;;;2.80;;
36205;SDS011;22242;48.796;9.930;2024-03-02T14:12:38;4.75;;;2.25;;
36205;SDS011;22242;48.796;9.930;2024-03-02T14:15:07;2.22;;;2.03;;
36205;SDS011;22242;48.796;9.930;2024-03-02T14:17:34;3.35;;;2.72;;
36205;SDS011;22242;48.796;9.930;2024-03-02T14:20:01;5.50;;;3.42;;
36205;SDS011;22242;48.796;9.930;2024-03-02T14:22:31;3.05;;;2.40;;
36205;SDS011;22242;48.796;9.930;2024-03-02T14:24:59;3.22;;;2.55;;
36205;SDS011;22242;48.796;9.930;2024-03-02T14:27:25;3.90;;;2.83;;
36205;SDS011;22242;48.796;9.930;2024-03-02T14:29:52;3.30;;;2.70;;
36205;SDS011;22242;48.796;9.930;2024-03-02T14:32:19;3.95;;;2.97;;
36205;SDS011;22242;48.796;9.930;2024-03-02T14:34:46;3.08;;;2.67;;
36205;SDS011;22242;48.796;9.930;2024-03-02T14:37:13;3.20;;;2.40;;
36205;SDS011;22242;48.796;9.930;2024-03-02T14:39:42;3.40;;;2.50;;
36205;SDS011;22242;48.796;9.930;2024-03-02T14:42:09;3.53;;;2.38;;
36205;SDS011;22242;48.796;9.930;2024-03-02T14:44:35;2.20;;;2.00;;